createdAt,value
2022-10-25T00:01:19.914Z,7.85
2022-10-25T00:04:16.779Z,7.6
2022-10-25T00:07:16.698Z,6.112500000000001
2022-10-25T00:11:19.929Z,6.512499999999999
2022-10-25T00:14:19.145Z,6.375
2022-10-25T00:17:16.528Z,6.8125
2022-10-25T00:21:15.950Z,7.8125
2022-10-25T00:24:16.381Z,6.3375
2022-10-25T00:27:16.426Z,6.825
2022-10-25T00:31:17.480Z,9.375
2022-10-25T00:34:17.015Z,7.65
2022-10-25T00:37:16.506Z,7.875
2022-10-25T00:41:18.347Z,8.1375
2022-10-25T00:44:52.088Z,6.625
2022-10-25T00:47:28.847Z,6.5
2022-10-25T00:51:15.901Z,5.949999999999999
2022-10-25T00:54:19.449Z,7.025
2022-10-25T00:57:20.346Z,5.6000000000000005
2022-10-25T01:01:18.292Z,5.9375
2022-10-25T01:04:17.751Z,5.875
2022-10-25T01:07:16.541Z,6.5
2022-10-25T01:14:17.394Z,5.425
2022-10-25T01:17:24.067Z,5.4750000000000005
2022-10-25T01:21:52.844Z,6.8375
2022-10-25T01:24:44.048Z,5.7625
2022-10-25T01:28:14.944Z,5.35
2022-10-25T01:31:26.350Z,5.375
2022-10-25T01:34:24.194Z,5.3625
2022-10-25T01:37:25.441Z,5.612500000000001
2022-10-25T01:41:25.543Z,5.5
2022-10-25T01:44:29.127Z,5.6625
2022-10-25T01:47:23.545Z,5.8875
2022-10-25T01:51:17.459Z,6.625
2022-10-25T01:54:19.318Z,6.35
2022-10-25T01:57:30.109Z,5.7875
2022-10-25T02:01:27.537Z,7.6875
2022-10-25T02:04:28.400Z,6.3
2022-10-25T02:07:27.104Z,6.9375
2022-10-25T02:11:23.743Z,7.0125
2022-10-25T02:14:25.374Z,6.9625
2022-10-25T02:17:20.294Z,6.4625
2022-10-25T02:21:17.811Z,7.050000000000001
2022-10-25T02:24:20.418Z,6.25
2022-10-25T02:27:19.839Z,5.925000000000001
2022-10-25T02:31:19.236Z,6.35
2022-10-25T02:34:16.663Z,5.7125
2022-10-25T02:37:17.343Z,6.0125
2022-10-25T02:41:17.152Z,6.8375
2022-10-25T02:44:16.382Z,5.275
2022-10-25T02:47:17.283Z,6.375
2022-10-25T02:51:17.994Z,6.125
2022-10-25T02:54:17.487Z,5.887499999999999
2022-10-25T02:57:17.240Z,6.3125
2022-10-25T03:01:19.236Z,6.762499999999999
2022-10-25T03:04:20.775Z,6.5875
2022-10-25T03:07:19.369Z,5.925000000000001
2022-10-25T03:11:16.512Z,6.2125
2022-10-25T03:14:16.069Z,5.5125
2022-10-25T03:17:16.350Z,6.775
2022-10-25T03:21:15.701Z,6.4
2022-10-25T03:24:16.510Z,4.825
2022-10-25T03:27:16.153Z,7.0125
2022-10-25T03:31:17.940Z,5.3625
2022-10-25T03:41:16.299Z,6.2
2022-10-25T03:44:16.508Z,5.525
2022-10-25T03:47:16.709Z,5.199999999999999
2022-10-25T03:51:15.919Z,6.2375
2022-10-25T03:54:16.020Z,5.525
2022-10-25T03:57:16.990Z,4.8
2022-10-25T04:01:15.961Z,4.5625
2022-10-25T04:04:16.566Z,6.050000000000001
2022-10-25T04:07:16.405Z,5.3
2022-10-25T04:11:17.668Z,6.475
2022-10-25T04:14:16.779Z,6.6625
2022-10-25T04:17:17.059Z,6.275
2022-10-25T04:21:15.938Z,5.824999999999999
2022-10-25T04:24:16.678Z,6.25
2022-10-25T04:27:16.191Z,5.9
2022-10-25T04:31:17.180Z,6.15
2022-10-25T04:34:17.270Z,5.800000000000001
2022-10-25T04:37:16.943Z,5.2
2022-10-25T04:41:17.293Z,5.875
2022-10-25T04:44:16.742Z,5.4125
2022-10-25T04:47:16.845Z,5.525
2022-10-25T04:51:15.974Z,5.8375
2022-10-25T04:54:16.197Z,5.5375
2022-10-25T04:57:16.039Z,5.6875
2022-10-25T05:01:18.203Z,4.275
2022-10-25T05:04:17.034Z,4.075
2022-10-25T05:07:17.408Z,5.775
2022-10-25T05:11:17.859Z,5.25
2022-10-25T05:14:16.186Z,4.7
2022-10-25T05:17:16.444Z,3.8375000000000004
2022-10-25T05:21:17.778Z,5.0875
2022-10-25T05:24:16.975Z,5.262499999999999
2022-10-25T05:27:17.624Z,5.8125
2022-10-25T05:31:18.287Z,5.1125
2022-10-25T05:34:16.418Z,5.3875
2022-10-25T05:37:16.102Z,4.675
2022-10-25T05:41:17.581Z,5.375
2022-10-25T05:44:17.294Z,5.8875
2022-10-25T05:47:16.305Z,5.824999999999999
2022-10-25T05:51:33.005Z,5.8625
2022-10-25T05:54:15.942Z,6.0625
2022-10-25T05:57:16.408Z,5.1625
2022-10-25T06:01:18.817Z,5.8500000000000005
2022-10-25T06:04:17.610Z,5.3125
2022-10-25T06:07:16.815Z,4.8125
2022-10-25T06:11:18.692Z,5.7875000000000005
2022-10-25T06:14:16.718Z,5.2
2022-10-25T06:17:16.717Z,3.9375
2022-10-25T06:21:18.256Z,6.3125
2022-10-25T06:24:16.201Z,5.4125
2022-10-25T06:27:16.479Z,4.95
2022-10-25T06:31:17.860Z,6.25
2022-10-25T06:34:16.280Z,6.0875
2022-10-25T06:37:16.347Z,5.125
2022-10-25T06:41:19.051Z,5.3875
2022-10-25T06:44:16.356Z,5.775
2022-10-25T06:47:17.967Z,4.65
2022-10-25T06:51:16.233Z,5.637499999999999
2022-10-25T06:54:17.174Z,5.9624999999999995
2022-10-25T06:57:17.589Z,4.4125
2022-10-25T07:01:17.976Z,6.112500000000001
2022-10-25T07:04:16.882Z,5.9125
2022-10-25T07:07:17.429Z,5.325
2022-10-25T07:11:18.105Z,5.762499999999999
2022-10-25T07:14:16.878Z,5.449999999999999
2022-10-25T07:17:16.414Z,5.1875
2022-10-25T07:21:18.854Z,6.475
2022-10-25T07:24:17.284Z,5.300000000000001
2022-10-25T07:27:17.752Z,5.5875
2022-10-25T07:31:23.016Z,5.75
2022-10-25T07:34:19.637Z,5.637499999999999
2022-10-25T07:37:18.704Z,5.5874999999999995
2022-10-25T07:41:15.844Z,5.8125
2022-10-25T07:44:20.228Z,5.075
2022-10-25T07:47:16.177Z,6.5
2022-10-25T07:51:18.396Z,6.5125
2022-10-25T07:54:16.161Z,5.975
2022-10-25T07:57:16.474Z,7.225
2022-10-25T08:01:20.752Z,8.1625
2022-10-25T08:04:16.265Z,7.7875000000000005
2022-10-25T08:07:24.146Z,7.5875
2022-10-25T08:11:16.700Z,7.387499999999999
2022-10-25T08:14:17.267Z,6.8875
2022-10-25T08:17:17.954Z,6.5
2022-10-25T08:21:15.951Z,6.2875
2022-10-25T08:24:17.420Z,6.7125
2022-10-25T08:27:16.300Z,5.975
2022-10-25T08:31:16.561Z,6.825
2022-10-25T08:34:16.553Z,5.975
2022-10-25T08:37:21.803Z,7.5
2022-10-25T08:41:42.749Z,7.575
2022-10-25T08:44:27.383Z,7.9125
2022-10-25T08:47:23.904Z,7.574999999999999
2022-10-25T08:51:25.639Z,7.5375
2022-10-25T08:54:23.484Z,5.550000000000001
2022-10-25T08:57:21.518Z,6.175000000000001
2022-10-25T09:01:25.938Z,6.625
2022-10-25T09:04:20.095Z,6.8125
2022-10-25T09:07:42.083Z,6.4625
2022-10-25T09:11:27.167Z,6.3875
2022-10-25T09:14:27.558Z,6.0625
2022-10-25T09:17:19.170Z,6.050000000000001
2022-10-25T09:21:22.501Z,6.1499999999999995
2022-10-25T09:24:21.125Z,6.45
2022-10-25T09:27:26.339Z,5.1125
2022-10-25T09:31:21.810Z,7.15
2022-10-25T09:34:21.683Z,6.237500000000001
2022-10-25T09:37:23.126Z,6.8500000000000005
2022-10-25T09:41:22.084Z,7.5125
2022-10-25T09:44:33.234Z,6.15
2022-10-25T09:47:27.836Z,6.45
2022-10-25T09:51:23.643Z,7
2022-10-25T09:54:24.329Z,6.15
2022-10-25T09:57:16.860Z,7.225
2022-10-25T10:01:24.345Z,6.375
2022-10-25T10:04:25.408Z,6.125
2022-10-25T10:07:23.035Z,6.6125
2022-10-25T10:11:18.691Z,7.199999999999999
2022-10-25T10:14:25.165Z,6.475
2022-10-25T10:17:19.006Z,6.574999999999999
2022-10-25T10:21:41.518Z,6.8125
2022-10-25T10:24:22.359Z,6
2022-10-25T10:27:25.301Z,6.4
2022-10-25T10:31:23.056Z,6.225
2022-10-25T10:34:25.734Z,7.012499999999999
2022-10-25T10:37:20.954Z,6.9125
2022-10-25T10:41:23.049Z,8.287500000000001
2022-10-25T10:44:16.893Z,6.0625
2022-10-25T10:47:20.625Z,6.949999999999999
2022-10-25T10:51:42.537Z,6.4125
2022-10-25T10:54:25.268Z,6.175
2022-10-25T10:57:29.508Z,6.8125
2022-10-25T11:01:27.821Z,6.8625
2022-10-25T11:04:16.276Z,5.5875
2022-10-25T11:07:28.705Z,5.7625
2022-10-25T11:11:18.282Z,6.1125
2022-10-25T11:14:17.179Z,5.625
2022-10-25T11:17:25.318Z,6.3125
2022-10-25T11:21:30.951Z,5.800000000000001
2022-10-25T11:24:27.397Z,5.737500000000001
2022-10-25T11:27:25.515Z,4.575
2022-10-25T11:31:30.788Z,5.7250000000000005
2022-10-25T11:34:27.182Z,4.575
2022-10-25T11:37:20.122Z,5.525
2022-10-25T11:41:31.734Z,5.125
2022-10-25T11:44:46.542Z,6.025
2022-10-25T11:47:33.093Z,5.5875
2022-10-25T11:51:27.715Z,5.199999999999999
2022-10-25T11:54:30.004Z,4.4375
2022-10-25T11:57:29.042Z,5.925
2022-10-25T12:01:29.123Z,5.237500000000001
2022-10-25T12:04:34.778Z,4.725
2022-10-25T12:07:22.796Z,5.3125
2022-10-25T12:11:20.136Z,5.625
2022-10-25T12:14:26.967Z,5.075
2022-10-25T12:17:22.354Z,4.1125
2022-10-25T12:21:23.430Z,5.6625
2022-10-25T12:24:20.409Z,5.7875
2022-10-25T12:27:19.776Z,5.25
2022-10-25T12:31:20.539Z,5.6
2022-10-25T12:34:23.379Z,5.575
2022-10-25T12:37:28.395Z,5.3999999999999995
2022-10-25T12:41:21.654Z,7.374999999999999
2022-10-25T12:44:36.893Z,4.5
2022-10-25T12:47:35.920Z,5.275
2022-10-25T12:51:33.299Z,4.7
2022-10-25T12:54:56.016Z,5.5
2022-10-25T12:57:26.305Z,5.5
2022-10-25T13:01:35.969Z,5.85
2022-10-25T13:04:32.605Z,4.6875
2022-10-25T13:07:19.252Z,5.2
2022-10-25T13:11:16.733Z,5.6625
2022-10-25T13:14:25.608Z,6.262499999999999
2022-10-25T13:18:02.409Z,6.725
2022-10-25T13:22:27.918Z,5.85
2022-10-25T13:24:36.714Z,6.387499999999999
2022-10-25T13:32:17.457Z,7.95
2022-10-25T13:34:34.967Z,6.6
2022-10-25T13:37:39.401Z,6.5
2022-10-25T13:41:18.292Z,9.162500000000001
2022-10-25T13:44:40.980Z,8.600000000000001
2022-10-25T13:47:35.911Z,8.2
2022-10-25T13:51:17.894Z,6.7375
2022-10-25T13:54:18.356Z,5.9
2022-10-25T13:57:52.252Z,6.6375
2022-10-25T14:01:52.221Z,6.025
2022-10-25T14:04:22.398Z,6.0625
2022-10-25T14:07:48.235Z,5.8375
2022-10-25T14:11:20.403Z,6.825
2022-10-25T14:14:23.660Z,5.95
2022-10-25T14:17:25.426Z,5.9375
2022-10-25T14:21:15.723Z,6.75
2022-10-25T14:24:17.272Z,5.449999999999999
2022-10-25T14:27:33.794Z,5.6
2022-10-25T14:31:19.895Z,6.4625
2022-10-25T14:34:20.097Z,6.85
2022-10-25T14:37:17.319Z,6.050000000000001
2022-10-25T14:41:20.591Z,6.375
2022-10-25T14:44:21.954Z,6.35
2022-10-25T14:47:26.931Z,6.1375
2022-10-25T14:51:23.695Z,8.825
2022-10-25T14:54:26.201Z,5.975
2022-10-25T14:57:21.760Z,7.0625
2022-10-25T15:01:24.925Z,7.5
2022-10-25T15:04:25.615Z,6.9375
2022-10-25T15:07:21.018Z,7.8875
2022-10-25T15:11:19.558Z,7.612500000000001
2022-10-25T15:14:21.678Z,9.4125
2022-10-25T15:17:25.707Z,7.6125
2022-10-25T15:21:17.315Z,8.1625
2022-10-25T15:24:20.178Z,6.9875
2022-10-25T15:27:26.308Z,5.6875
2022-10-25T15:31:23.652Z,6.9625
2022-10-25T15:34:16.524Z,7.625
2022-10-25T15:37:17.946Z,6.4375
2022-10-25T15:41:16.859Z,7.425
2022-10-25T15:44:16.376Z,7.35
2022-10-25T15:47:26.615Z,7.675
2022-10-25T15:51:16.950Z,6.9875
2022-10-25T15:54:18.226Z,6.387499999999999
2022-10-25T15:57:16.358Z,7.425000000000001
2022-10-25T16:01:16.408Z,7.612500000000001
2022-10-25T16:04:17.947Z,8.1125
2022-10-25T16:07:23.764Z,7.5
2022-10-25T16:11:19.487Z,9.05
2022-10-25T16:14:21.581Z,8.4
2022-10-25T16:17:16.415Z,8.4
2022-10-25T16:21:16.158Z,8.125
2022-10-25T16:24:16.783Z,7.6499999999999995
2022-10-25T16:27:16.740Z,8.6875
2022-10-25T16:31:19.673Z,9.712499999999999
2022-10-25T16:34:18.032Z,11.05
2022-10-25T16:37:17.183Z,7.424999999999999
2022-10-25T16:41:23.335Z,7.949999999999999
2022-10-25T16:44:18.288Z,8.8625
2022-10-25T16:47:16.067Z,5.8625
2022-10-25T16:51:18.387Z,7.9125000000000005
2022-10-25T16:54:19.671Z,8.1125
2022-10-25T16:57:17.144Z,7.612500000000001
2022-10-25T17:01:18.729Z,8.5625
2022-10-25T17:04:16.095Z,7.574999999999999
2022-10-25T17:07:16.090Z,7.675000000000001
2022-10-25T17:11:16.708Z,8.9625
2022-10-25T17:14:16.215Z,8.575
2022-10-25T17:17:16.308Z,7.225
2022-10-25T17:21:16.153Z,8.625
2022-10-25T17:24:16.395Z,8.7125
2022-10-25T17:27:15.775Z,8.15
2022-10-25T17:31:16.127Z,9.3125
2022-10-25T17:34:18.095Z,7.2
2022-10-25T17:37:16.599Z,7
2022-10-25T17:41:16.735Z,11.1125
2022-10-25T17:44:17.533Z,7.475
2022-10-25T17:47:16.927Z,8.6125
2022-10-25T17:51:17.372Z,8.95
2022-10-25T17:54:18.087Z,8.537500000000001
2022-10-25T17:57:16.733Z,8.525
2022-10-25T18:01:18.223Z,8.512500000000001
2022-10-25T18:04:16.497Z,8.15
2022-10-25T18:07:16.603Z,6.987500000000001
2022-10-25T18:11:20.543Z,9.5125
2022-10-25T18:14:16.651Z,10.0625
2022-10-25T18:17:16.645Z,7.55
2022-10-25T18:21:17.402Z,9.100000000000001
2022-10-25T18:24:16.732Z,8.575000000000001
2022-10-25T18:27:16.633Z,8.387500000000001
2022-10-25T18:31:16.804Z,8.3375
2022-10-25T18:34:16.860Z,7.437500000000001
2022-10-25T18:37:16.639Z,7.225
2022-10-25T18:41:18.778Z,9.2875
2022-10-25T18:44:16.651Z,7.887499999999999
2022-10-25T18:47:16.335Z,7.9
2022-10-25T18:51:17.149Z,11.525
2022-10-25T18:54:17.820Z,9.4
2022-10-25T18:57:18.064Z,7.550000000000001
2022-10-25T19:01:18.825Z,8.1125
2022-10-25T19:04:16.368Z,8.8125
2022-10-25T19:07:16.217Z,7.8
2022-10-25T19:11:16.675Z,8.6125
2022-10-25T19:14:15.907Z,8.549999999999999
2022-10-25T19:17:16.150Z,8.525
2022-10-25T19:21:17.995Z,10.462499999999999
2022-10-25T19:24:17.615Z,8.1875
2022-10-25T19:27:16.513Z,8.5
2022-10-25T19:31:17.809Z,8.75
2022-10-25T19:34:17.350Z,8.65
2022-10-25T19:37:16.879Z,8.025
2022-10-25T19:41:18.472Z,8.7625
2022-10-25T19:44:15.825Z,9.1375
2022-10-25T19:47:15.795Z,9.8125
2022-10-25T19:51:18.725Z,8.9125
2022-10-25T19:54:16.269Z,9.0375
2022-10-25T19:57:16.873Z,8.5125
2022-10-25T20:01:19.235Z,8
2022-10-25T20:04:17.056Z,8.475
2022-10-25T20:07:16.884Z,7.925
2022-10-25T20:11:17.312Z,7.6625000000000005
2022-10-25T20:14:15.991Z,9.375
2022-10-25T20:17:16.147Z,8.100000000000001
2022-10-25T20:21:17.837Z,8.9875
2022-10-25T20:24:16.355Z,8.1625
2022-10-25T20:27:16.621Z,8.649999999999999
2022-10-25T20:31:16.037Z,9.5125
2022-10-25T20:34:17.293Z,7.85
2022-10-25T20:37:16.117Z,8.075
2022-10-25T20:41:18.566Z,8.2875
2022-10-25T20:44:17.022Z,8.175
2022-10-25T20:47:16.582Z,7.5375000000000005
2022-10-25T20:51:16.894Z,9.075
2022-10-25T20:54:16.809Z,7.625
2022-10-25T20:57:16.873Z,9.0125
2022-10-25T21:01:21.836Z,8.337499999999999
2022-10-25T21:04:25.885Z,7.425
2022-10-25T21:07:17.189Z,6.987500000000001
2022-10-25T21:11:16.470Z,7.387499999999999
2022-10-25T21:14:16.584Z,8.475
2022-10-25T21:17:16.880Z,6.8375
2022-10-25T21:21:19.655Z,7.987500000000001
2022-10-25T21:24:16.631Z,9.125
2022-10-25T21:27:17.042Z,8.5625
2022-10-25T21:31:16.519Z,8.8625
2022-10-25T21:37:16.673Z,8.587500000000002
2022-10-25T21:41:17.668Z,8.587499999999999
2022-10-25T21:44:16.754Z,8.5
2022-10-25T21:47:16.299Z,7.112500000000001
2022-10-25T21:51:16.487Z,8.7
2022-10-25T21:54:16.698Z,8.3125
2022-10-25T21:57:17.407Z,8.1375
2022-10-25T22:01:18.214Z,10.1375
2022-10-25T22:04:16.227Z,9.95
2022-10-25T22:07:16.493Z,10.5125
2022-10-25T22:11:17.844Z,8.5375
2022-10-25T22:14:17.095Z,9.024999999999999
2022-10-25T22:17:16.463Z,8.087499999999999
2022-10-25T22:21:16.199Z,8.05
2022-10-25T22:24:17.025Z,8.349999999999998
2022-10-25T22:27:16.514Z,8.4625
2022-10-25T22:31:18.314Z,8.0625
2022-10-25T22:34:18.309Z,8.325
2022-10-25T22:37:18.618Z,7.6499999999999995
2022-10-25T22:41:18.040Z,9.5625
2022-10-25T22:44:16.964Z,8.225
2022-10-25T22:47:17.181Z,8.649999999999999
2022-10-25T22:51:16.924Z,10.7375
2022-10-25T22:54:16.361Z,8.75
2022-10-25T22:57:16.246Z,8.100000000000001
2022-10-25T23:01:19.304Z,9.774999999999999
2022-10-25T23:04:16.968Z,8.4125
2022-10-25T23:07:17.187Z,7.8500000000000005
2022-10-25T23:11:19.253Z,9.975
2022-10-25T23:14:17.496Z,9.5125
2022-10-25T23:17:17.564Z,9.9375
2022-10-25T23:21:19.184Z,10.0625
2022-10-25T23:24:17.134Z,7.25
2022-10-25T23:27:17.206Z,6.35
2022-10-25T23:31:17.119Z,10.325
2022-10-25T23:34:17.422Z,8.45
2022-10-25T23:37:16.824Z,8.6125
2022-10-25T23:41:16.754Z,8.7
2022-10-25T23:44:16.066Z,8.75
2022-10-25T23:47:16.138Z,9.037500000000001
2022-10-25T23:51:17.344Z,9.5
2022-10-25T23:54:16.049Z,8.9375
